Time;durP1;ratioP1;P1;durP2;ratioP2;P2;SDS_P1;SDS_P2;PMS_P1;PMS_P2;Temp;Humidity;BMP_temperature;BMP_pressure;BME280_temperature;BME280_humidity;BME280_pressure;Samples;Min_cycle;Max_cycle;Signal;HPM_P1;HPM_P2
2023/11/05 00:00:17;;;;;;;4.25;3.85;;;;;;;;;;12697428;23;20341;-69
2023/11/05 00:05:14;;;;;;;4.60;4.20;;;;;;;;;;12699254;22;20346;-70
2023/11/05 00:10:11;;;;;;;4.32;3.90;;;;;;;;;;12697657;23;20032;-70
2023/11/05 00:15:08;;;;;;;5.30;4.38;;;;;;;;;;12698045;22;20107;-70
2023/11/05 00:20:07;;;;;;;4.53;4.13;;;;;;;;;;12697743;23;20016;-70
2023/11/05 00:25:05;;;;;;;4.50;4.10;;;;;;;;;;12697854;22;20021;-71
2023/11/05 00:30:01;;;;;;;4.95;4.35;;;;;;;;;;12699007;23;20031;-70
2023/11/05 00:34:57;;;;;;;5.18;4.38;;;;;;;;;;12698263;22;20020;-70
2023/11/05 00:39:54;;;;;;;5.45;4.68;;;;;;;;;;12696376;23;20074;-70
2023/11/05 00:44:51;;;;;;;7.22;4.10;;;;;;;;;;12697129;22;20370;-70
2023/11/05 00:49:47;;;;;;;7.78;4.50;;;;;;;;;;12697501;23;20028;-69
2023/11/05 00:54:43;;;;;;;5.10;4.60;;;;;;;;;;12697401;22;20098;-69
2023/11/05 00:59:40;;;;;;;4.88;4.47;;;;;;;;;;12698560;23;20016;-69
2023/11/05 01:04:36;;;;;;;5.45;4.70;;;;;;;;;;12697427;22;20024;-69
2023/11/05 01:09:33;;;;;;;5.03;4.60;;;;;;;;;;12698185;23;20078;-69
2023/11/05 01:14:29;;;;;;;5.03;4.50;;;;;;;;;;12690678;22;20030;-70
2023/11/05 01:19:25;;;;;;;5.03;4.57;;;;;;;;;;12695865;23;20104;-70
2023/11/05 01:24:22;;;;;;;4.93;4.40;;;;;;;;;;12695752;22;20481;-70
2023/11/05 01:29:18;;;;;;;4.93;4.45;;;;;;;;;;12695938;23;20028;-70
2023/11/05 01:34:15;;;;;;;4.97;4.55;;;;;;;;;;12669244;22;20024;-70
2023/11/05 01:39:12;;;;;;;6.75;4.95;;;;;;;;;;12696190;23;20074;-70
2023/11/05 01:44:08;;;;;;;5.50;4.65;;;;;;;;;;12668321;22;20070;-69
2023/11/05 01:49:05;;;;;;;5.35;4.82;;;;;;;;;;12669531;23;20031;-69
2023/11/05 01:54:02;;;;;;;4.85;4.45;;;;;;;;;;12696360;22;20024;-69
2023/11/05 01:58:59;;;;;;;5.95;4.30;;;;;;;;;;12696697;23;20020;-68
2023/11/05 02:03:55;;;;;;;8.43;4.70;;;;;;;;;;12692104;22;20489;-68
2023/11/05 02:08:52;;;;;;;4.70;4.30;;;;;;;;;;12695611;23;20061;-69
2023/11/05 02:13:52;;;;;;;4.47;4.07;;;;;;;;;;12694851;22;20027;-70
2023/11/05 02:18:50;;;;;;;4.82;4.43;;;;;;;;;;12697541;23;20174;-70
2023/11/05 02:23:49;;;;;;;5.07;4.68;;;;;;;;;;12693675;22;20035;-69
2023/11/05 02:28:45;;;;;;;5.20;4.60;;;;;;;;;;12699796;23;20390;-70
2023/11/05 02:33:42;;;;;;;5.40;4.90;;;;;;;;;;12699145;22;20504;-69
2023/11/05 02:38:39;;;;;;;5.32;4.82;;;;;;;;;;12699857;23;20060;-69
2023/11/05 02:43:35;;;;;;;5.00;4.60;;;;;;;;;;12700181;22;20642;-69
2023/11/05 02:48:34;;;;;;;8.10;5.07;;;;;;;;;;12700501;23;20493;-70
2023/11/05 02:53:30;;;;;;;5.05;4.65;;;;;;;;;;12698841;22;20509;-70
2023/11/05 02:58:27;;;;;;;5.72;5.13;;;;;;;;;;12698085;23;20058;-70
2023/11/05 03:03:23;;;;;;;5.47;4.97;;;;;;;;;;12695893;22;20024;-70
2023/11/05 03:08:20;;;;;;;7.88;4.90;;;;;;;;;;12698376;23;20020;-69
2023/11/05 03:13:16;;;;;;;5.07;4.60;;;;;;;;;;12698938;22;20032;-70
2023/11/05 03:18:13;;;;;;;6.72;4.80;;;;;;;;;;12698063;23;20462;-70
2023/11/05 03:23:10;;;;;;;6.53;5.32;;;;;;;;;;12699145;22;20021;-68
2023/11/05 03:28:06;;;;;;;5.72;5.22;;;;;;;;;;12672720;23;20024;-69
2023/11/05 03:33:05;;;;;;;5.60;5.10;;;;;;;;;;12699125;22;20024;-69
2023/11/05 03:38:01;;;;;;;5.63;5.13;;;;;;;;;;12693981;23;20024;-69
2023/11/05 03:42:58;;;;;;;5.35;4.85;;;;;;;;;;12700193;22;20027;-69
2023/11/05 03:47:54;;;;;;;5.70;5.30;;;;;;;;;;12670639;23;20032;-69
2023/11/05 03:52:51;;;;;;;5.88;5.38;;;;;;;;;;12697030;22;20024;-69
2023/11/05 03:57:47;;;;;;;5.45;4.95;;;;;;;;;;12693709;23;20043;-68
2023/11/05 04:02:44;;;;;;;7.40;5.40;;;;;;;;;;12698164;22;20036;-69
2023/11/05 04:07:42;;;;;;;6.05;5.50;;;;;;;;;;12697905;23;20031;-69
2023/11/05 04:12:38;;;;;;;5.40;4.90;;;;;;;;;;12696962;22;20138;-70
2023/11/05 04:17:34;;;;;;;5.63;5.13;;;;;;;;;;12698021;23;20489;-70
2023/11/05 04:22:31;;;;;;;5.43;4.93;;;;;;;;;;12698336;23;20074;-70
2023/11/05 04:27:28;;;;;;;5.88;4.97;;;;;;;;;;12670427;23;20020;-71
2023/11/05 04:32:25;;;;;;;5.45;5.03;;;;;;;;;;12697497;23;20465;-71
2023/11/05 04:37:21;;;;;;;5.70;5.20;;;;;;;;;;12698783;22;20028;-70
2023/11/05 04:42:18;;;;;;;6.40;5.53;;;;;;;;;;12699136;23;20051;-69
2023/11/05 04:47:14;;;;;;;6.00;5.43;;;;;;;;;;12692767;22;20382;-69
2023/11/05 04:52:10;;;;;;;6.10;5.10;;;;;;;;;;12698047;23;20024;-68
2023/11/05 04:57:07;;;;;;;8.38;5.35;;;;;;;;;;12696167;22;20023;-69
2023/11/05 05:02:03;;;;;;;7.25;5.22;;;;;;;;;;12696564;23;20064;-69
2023/11/05 05:06:59;;;;;;;7.28;6.05;;;;;;;;;;12696926;22;20020;-71
2023/11/05 05:11:57;;;;;;;8.07;5.38;;;;;;;;;;12696416;23;20074;-72
2023/11/05 05:16:54;;;;;;;7.10;5.57;;;;;;;;;;12697203;22;20024;-72
2023/11/05 05:21:50;;;;;;;6.75;6.00;;;;;;;;;;12696518;23;20086;-68
2023/11/05 05:26:46;;;;;;;6.18;5.63;;;;;;;;;;12696057;22;20028;-68
2023/11/05 05:31:43;;;;;;;10.27;5.57;;;;;;;;;;12696616;23;20038;-69
2023/11/05 05:36:42;;;;;;;6.45;5.75;;;;;;;;;;12696283;22;20028;-67
2023/11/05 05:41:39;;;;;;;6.38;5.78;;;;;;;;;;12680250;23;20054;-67
2023/11/05 05:46:38;;;;;;;7.50;5.30;;;;;;;;;;12690241;22;20028;-69
2023/11/05 05:51:35;;;;;;;6.00;5.43;;;;;;;;;;12696601;23;20115;-69
2023/11/05 05:56:31;;;;;;;6.40;5.90;;;;;;;;;;12676695;23;20119;-67
2023/11/05 06:01:28;;;;;;;5.97;5.53;;;;;;;;;;12702955;23;20020;-69
2023/11/05 06:06:24;;;;;;;6.10;5.50;;;;;;;;;;12702756;22;20408;-69
2023/11/05 06:11:21;;;;;;;6.80;5.63;;;;;;;;;;12702162;23;20024;-69
2023/11/05 06:16:18;;;;;;;5.68;5.18;;;;;;;;;;12704400;22;20496;-67
2023/11/05 06:21:14;;;;;;;5.93;5.43;;;;;;;;;;12702536;23;20091;-69
2023/11/05 06:26:10;;;;;;;8.10;5.57;;;;;;;;;;12702877;22;20028;-69
2023/11/05 06:31:14;;;;;;;6.15;5.50;;;;;;;;;;12702164;23;20690;-70
2023/11/05 06:36:11;;;;;;;6.25;5.55;;;;;;;;;;12702561;22;20111;-69
2023/11/05 06:41:07;;;;;;;6.05;5.45;;;;;;;;;;12675923;23;20028;-71
2023/11/05 06:46:03;;;;;;;7.38;5.80;;;;;;;;;;12702600;22;20099;-71
2023/11/05 06:51:00;;;;;;;6.30;5.70;;;;;;;;;;12696285;23;20361;-69
2023/11/05 06:55:57;;;;;;;10.15;5.82;;;;;;;;;;12701994;22;20055;-68
2023/11/05 07:00:53;;;;;;;5.80;5.05;;;;;;;;;;12700995;23;20026;-66
2023/11/05 07:05:50;;;;;;;5.93;5.43;;;;;;;;;;12697409;22;20024;-68
2023/11/05 07:10:46;;;;;;;5.10;4.60;;;;;;;;;;12699504;23;20027;-66
2023/11/05 07:15:43;;;;;;;7.18;5.63;;;;;;;;;;12701233;22;20023;-67
2023/11/05 07:20:39;;;;;;;5.75;5.22;;;;;;;;;;12700715;23;20044;-68
2023/11/05 07:25:36;;;;;;;10.13;5.22;;;;;;;;;;12699040;22;20666;-71
2023/11/05 07:30:32;;;;;;;7.60;5.45;;;;;;;;;;12698267;23;20031;-69
2023/11/05 07:35:28;;;;;;;5.13;4.68;;;;;;;;;;12697003;22;20371;-71
2023/11/05 07:40:25;;;;;;;6.20;5.65;;;;;;;;;;12699100;23;20024;-71
2023/11/05 07:45:22;;;;;;;7.25;5.32;;;;;;;;;;12698239;22;20914;-70
2023/11/05 07:50:20;;;;;;;6.38;5.80;;;;;;;;;;12699985;23;20504;-67
2023/11/05 07:55:17;;;;;;;6.03;5.22;;;;;;;;;;12692320;22;20503;-68
2023/11/05 08:00:17;;;;;;;6.47;5.80;;;;;;;;;;12702845;23;20023;-67
2023/11/05 08:05:14;;;;;;;7.57;5.75;;;;;;;;;;12699369;22;20083;-68
2023/11/05 08:10:13;;;;;;;7.32;6.50;;;;;;;;;;12698439;23;20032;-69
2023/11/05 08:15:10;;;;;;;9.48;6.20;;;;;;;;;;12671100;22;20091;-69
2023/11/05 08:20:11;;;;;;;8.65;6.35;;;;;;;;;;12697249;23;20034;-69
2023/11/05 08:25:09;;;;;;;7.10;6.22;;;;;;;;;;12697604;22;20020;-69
2023/11/05 08:30:06;;;;;;;8.05;6.07;;;;;;;;;;12697123;23;20024;-69
2023/11/05 08:35:03;;;;;;;6.65;6.05;;;;;;;;;;12695798;22;20043;-69
2023/11/05 08:40:00;;;;;;;10.40;6.35;;;;;;;;;;12669878;23;20066;-67
2023/11/05 08:44:56;;;;;;;9.00;5.88;;;;;;;;;;12695658;22;20020;-67
2023/11/05 08:49:53;;;;;;;6.90;6.18;;;;;;;;;;12668865;23;20097;-67
2023/11/05 08:54:49;;;;;;;7.82;5.80;;;;;;;;;;12689292;22;20396;-67
2023/11/05 08:59:46;;;;;;;11.10;6.47;;;;;;;;;;12694432;23;20028;-67
2023/11/05 09:04:42;;;;;;;6.30;5.70;;;;;;;;;;12693835;22;20024;-67
2023/11/05 09:09:38;;;;;;;7.32;6.72;;;;;;;;;;12691231;23;20086;-69
2023/11/05 09:14:35;;;;;;;7.78;6.15;;;;;;;;;;12693118;22;20028;-69
2023/11/05 09:19:32;;;;;;;6.38;5.72;;;;;;;;;;12667752;23;20358;-69
2023/11/05 09:24:29;;;;;;;7.47;5.40;;;;;;;;;;12691337;22;20638;-69
2023/11/05 09:29:26;;;;;;;6.70;6.00;;;;;;;;;;12666172;23;20083;-70
2023/11/05 09:34:23;;;;;;;5.53;5.05;;;;;;;;;;12690275;22;20032;-69
2023/11/05 09:39:19;;;;;;;6.28;5.72;;;;;;;;;;12667355;23;20020;-69
2023/11/05 09:44:16;;;;;;;6.97;5.90;;;;;;;;;;12694565;22;20028;-69
2023/11/05 09:49:13;;;;;;;7.13;5.72;;;;;;;;;;12684103;23;20054;-69
2023/11/05 09:54:09;;;;;;;5.63;5.10;;;;;;;;;;12693496;22;20077;-69
2023/11/05 09:59:06;;;;;;;7.93;5.72;;;;;;;;;;12691749;23;20710;-69
2023/11/05 10:04:06;;;;;;;12.60;5.57;;;;;;;;;;12691591;22;20422;-69
2023/11/05 10:09:04;;;;;;;6.22;5.38;;;;;;;;;;12692005;23;20102;-69
2023/11/05 10:14:01;;;;;;;5.68;5.18;;;;;;;;;;12694027;22;20031;-69
2023/11/05 10:18:58;;;;;;;5.80;5.15;;;;;;;;;;12668606;23;20020;-71
2023/11/05 10:23:56;;;;;;;6.53;5.80;;;;;;;;;;12666497;22;20024;-69
2023/11/05 10:28:53;;;;;;;5.72;5.22;;;;;;;;;;12694950;23;20028;-69
2023/11/05 10:33:51;;;;;;;5.68;5.05;;;;;;;;;;12665292;22;20028;-69
2023/11/05 10:38:51;;;;;;;5.80;5.20;;;;;;;;;;12682087;23;20039;-69
2023/11/05 10:43:48;;;;;;;7.03;6.03;;;;;;;;;;12695442;22;20091;-70
2023/11/05 10:48:45;;;;;;;5.35;4.88;;;;;;;;;;12682436;23;20675;-71
2023/11/05 10:53:43;;;;;;;6.05;5.38;;;;;;;;;;12689913;22;20024;-71
2023/11/05 10:58:40;;;;;;;5.63;5.22;;;;;;;;;;12695538;23;20024;-72
2023/11/05 11:15:17;;;;;;;9.20;5.82;;;;;;;;;;12615786;23;20019;-72
2023/11/05 11:20:41;;;;;;;6.25;5.65;;;;;;;;;;12552144;23;20055;-73
2023/11/05 11:25:38;;;;;;;6.78;6.18;;;;;;;;;;12631209;23;20036;-73
2023/11/05 11:30:35;;;;;;;6.93;6.22;;;;;;;;;;12635432;23;20051;-72
2023/11/05 11:35:31;;;;;;;7.47;6.38;;;;;;;;;;12607173;23;20028;-73
2023/11/05 11:40:28;;;;;;;8.45;6.32;;;;;;;;;;12634636;23;20025;-74
2023/11/05 11:45:24;;;;;;;6.57;5.80;;;;;;;;;;12634306;23;20020;-74
2023/11/05 11:50:20;;;;;;;6.93;6.32;;;;;;;;;;12634619;23;20059;-72
2023/11/05 11:55:17;;;;;;;7.00;6.30;;;;;;;;;;12635018;23;20087;-73
2023/11/05 12:00:20;;;;;;;6.78;5.97;;;;;;;;;;12627313;23;20108;-72
2023/11/05 12:05:19;;;;;;;6.63;6.03;;;;;;;;;;12635839;23;20016;-72
2023/11/05 12:10:15;;;;;;;9.55;6.22;;;;;;;;;;12634933;23;20028;-72
2023/11/05 12:15:15;;;;;;;7.78;6.78;;;;;;;;;;12607210;23;20020;-72
2023/11/05 12:20:12;;;;;;;6.82;6.32;;;;;;;;;;12633922;23;20027;-73
2023/11/05 12:25:09;;;;;;;7.07;6.38;;;;;;;;;;12605422;23;20017;-72
2023/11/05 12:30:06;;;;;;;6.97;6.35;;;;;;;;;;12633401;23;20040;-72
2023/11/05 12:35:03;;;;;;;11.02;6.80;;;;;;;;;;12631386;23;20459;-72
2023/11/05 12:39:59;;;;;;;8.05;7.18;;;;;;;;;;12635309;23;20075;-72
2023/11/05 12:44:56;;;;;;;7.90;7.20;;;;;;;;;;12632254;23;20025;-72
2023/11/05 12:49:52;;;;;;;7.50;6.80;;;;;;;;;;12634083;23;20052;-72
2023/11/05 12:55:08;;;;;;;9.80;7.75;;;;;;;;;;12658106;22;20074;-72
2023/11/05 13:00:05;;;;;;;8.20;7.43;;;;;;;;;;12695222;23;20047;-71
2023/11/05 13:05:02;;;;;;;7.53;6.82;;;;;;;;;;12671181;22;20070;-71
2023/11/05 13:09:59;;;;;;;7.20;6.60;;;;;;;;;;12670951;23;20028;-72
2023/11/05 13:14:55;;;;;;;12.05;7.53;;;;;;;;;;12696198;22;20701;-71
2023/11/05 13:19:52;;;;;;;7.97;7.28;;;;;;;;;;12694138;23;20335;-71
2023/11/05 13:24:49;;;;;;;10.00;7.80;;;;;;;;;;12696123;22;20046;-72
2023/11/05 13:29:46;;;;;;;8.98;7.68;;;;;;;;;;12694745;23;20086;-71
2023/11/05 13:34:44;;;;;;;8.98;7.97;;;;;;;;;;12693905;22;20032;-72
2023/11/05 13:39:41;;;;;;;7.95;7.15;;;;;;;;;;12693315;23;20031;-73
2023/11/05 13:44:39;;;;;;;7.82;6.90;;;;;;;;;;12695236;22;20092;-72
2023/11/05 13:49:35;;;;;;;8.32;7.63;;;;;;;;;;12694611;23;20123;-70
2023/11/05 13:55:08;;;;;;;8.65;7.88;;;;;;;;;;12694825;22;20465;-73
2023/11/05 14:00:07;;;;;;;7.57;6.88;;;;;;;;;;12665378;23;20393;-74
2023/11/05 14:05:05;;;;;;;7.57;6.97;;;;;;;;;;12696190;22;20542;-76
2023/11/05 14:10:06;;;;;;;7.88;7.18;;;;;;;;;;12692489;23;20055;-75
2023/11/05 14:15:22;;;;;;;8.45;7.45;;;;;;;;;;12696582;22;20048;-75
2023/11/05 14:20:20;;;;;;;7.80;7.20;;;;;;;;;;12668804;23;20469;-75
2023/11/05 14:25:23;;;;;;;8.18;7.30;;;;;;;;;;12701482;22;20020;-76
2023/11/05 14:30:20;;;;;;;7.90;7.20;;;;;;;;;;12700354;23;20043;-74
2023/11/05 14:35:18;;;;;;;8.10;7.30;;;;;;;;;;12677050;23;20028;-75
2023/11/05 14:40:37;;;;;;;8.02;7.32;;;;;;;;;;12658213;23;20103;-76
2023/11/05 14:56:03;;;;;;;8.07;7.27;;;;;;;;;;12680297;22;20506;-75
2023/11/05 15:01:00;;;;;;;10.20;7.78;;;;;;;;;;12656551;22;20346;-73
2023/11/05 15:05:58;;;;;;;9.13;8.05;;;;;;;;;;12674471;23;20044;-74
2023/11/05 15:16:22;;;;;;;8.30;7.50;;;;;;;;;;12718030;22;20016;-75
2023/11/05 15:21:33;;;;;;;9.30;8.10;;;;;;;;;;12661605;22;20046;-74
2023/11/05 15:26:30;;;;;;;9.68;8.00;;;;;;;;;;12674813;23;20052;-75
2023/11/05 15:31:36;;;;;;;9.02;8.10;;;;;;;;;;12668202;22;20048;-75
2023/11/05 15:36:44;;;;;;;9.63;8.27;;;;;;;;;;12661410;23;20020;-76
2023/11/05 15:41:50;;;;;;;9.85;7.75;;;;;;;;;;12699730;22;20028;-75
2023/11/05 15:47:01;;;;;;;6.78;6.18;;;;;;;;;;12661064;23;20047;-75
2023/11/05 15:52:04;;;;;;;9.15;8.13;;;;;;;;;;12674869;22;20024;-75
2023/11/05 15:57:05;;;;;;;10.30;7.30;;;;;;;;;;12676041;23;20027;-75
2023/11/05 16:02:08;;;;;;;8.13;7.40;;;;;;;;;;12671289;22;20020;-75
2023/11/05 16:07:09;;;;;;;9.25;7.93;;;;;;;;;;12699734;23;20366;-76
2023/11/05 16:12:12;;;;;;;10.38;8.30;;;;;;;;;;12671496;22;20023;-76
2023/11/05 16:17:18;;;;;;;10.77;8.50;;;;;;;;;;12672499;23;20020;-75
2023/11/05 16:27:30;;;;;;;9.65;8.77;;;;;;;;;;12590474;23;20024;-71
2023/11/05 16:32:27;;;;;;;9.55;8.60;;;;;;;;;;12607029;23;20032;-72
2023/11/05 16:37:23;;;;;;;10.25;9.00;;;;;;;;;;12634354;23;20028;-71
2023/11/05 16:42:20;;;;;;;10.98;9.07;;;;;;;;;;12634885;23;20044;-71
2023/11/05 16:58:25;;;;;;;9.88;9.02;;;;;;;;;;12633070;23;20017;-71
2023/11/05 17:03:23;;;;;;;15.02;8.65;;;;;;;;;;12633816;23;20024;-71
2023/11/05 17:08:20;;;;;;;10.63;9.32;;;;;;;;;;12636505;23;20028;-70
2023/11/05 17:18:37;;;;;;;11.10;9.97;;;;;;;;;;12699581;22;20027;-78
2023/11/05 17:23:35;;;;;;;11.38;10.02;;;;;;;;;;12671642;23;20024;-78
2023/11/05 17:28:39;;;;;;;12.20;9.98;;;;;;;;;;12674731;23;20026;-78
2023/11/05 17:33:36;;;;;;;11.02;9.10;;;;;;;;;;12671211;23;20480;-77
2023/11/05 17:38:39;;;;;;;10.18;9.18;;;;;;;;;;12673009;23;20028;-77
2023/11/05 17:43:48;;;;;;;11.23;9.52;;;;;;;;;;12655659;23;20466;-79
2023/11/05 17:48:49;;;;;;;10.50;9.40;;;;;;;;;;12672880;23;20358;-78
2023/11/05 17:53:52;;;;;;;10.77;8.50;;;;;;;;;;12658846;23;20051;-78
2023/11/05 17:58:56;;;;;;;13.80;10.80;;;;;;;;;;12671345;23;20331;-79
2023/11/05 18:03:56;;;;;;;15.45;13.93;;;;;;;;;;12640555;23;20119;-76
2023/11/05 18:08:58;;;;;;;21.58;16.80;;;;;;;;;;12673861;23;20020;-77
2023/11/05 18:14:01;;;;;;;20.38;16.98;;;;;;;;;;12658983;23;20020;-76
2023/11/05 18:19:04;;;;;;;17.73;14.93;;;;;;;;;;12672554;23;20455;-77
2023/11/05 18:24:03;;;;;;;13.70;12.27;;;;;;;;;;12656372;23;20466;-77
2023/11/05 18:29:09;;;;;;;11.23;9.35;;;;;;;;;;12671203;23;20043;-77
2023/11/05 18:34:11;;;;;;;9.38;8.45;;;;;;;;;;12696385;22;20024;-76
2023/11/05 18:39:13;;;;;;;8.60;7.70;;;;;;;;;;12675082;23;20474;-75
2023/11/05 18:44:11;;;;;;;9.95;7.72;;;;;;;;;;12674737;23;20031;-77
2023/11/05 18:49:08;;;;;;;8.90;8.00;;;;;;;;;;12673656;23;20024;-77
2023/11/05 18:54:10;;;;;;;9.07;8.20;;;;;;;;;;12646594;22;20463;-76
2023/11/05 18:59:11;;;;;;;9.52;8.65;;;;;;;;;;12668342;23;20025;-76
2023/11/05 19:04:12;;;;;;;11.98;9.43;;;;;;;;;;12653531;23;20103;-77
2023/11/05 19:09:10;;;;;;;9.85;8.85;;;;;;;;;;12672901;23;20024;-78
2023/11/05 19:14:07;;;;;;;10.38;9.20;;;;;;;;;;12658522;23;20031;-77
2023/11/05 19:19:11;;;;;;;11.05;9.40;;;;;;;;;;12675324;23;20362;-77
2023/11/05 19:24:08;;;;;;;12.15;10.48;;;;;;;;;;12673035;23;20350;-76
2023/11/05 19:29:05;;;;;;;12.10;10.75;;;;;;;;;;12701556;23;20028;-77
2023/11/05 19:34:02;;;;;;;11.65;10.45;;;;;;;;;;12661204;23;20488;-77
2023/11/05 19:39:03;;;;;;;14.88;10.68;;;;;;;;;;12674835;23;20634;-78
2023/11/05 19:43:59;;;;;;;11.32;10.13;;;;;;;;;;12660282;23;20508;-77
2023/11/05 19:48:56;;;;;;;10.70;9.60;;;;;;;;;;12675429;23;20020;-77
2023/11/05 19:53:53;;;;;;;11.43;10.23;;;;;;;;;;12670319;22;20070;-78
2023/11/05 19:58:50;;;;;;;10.85;9.75;;;;;;;;;;12674045;23;20031;-77
2023/11/05 20:03:47;;;;;;;10.35;8.75;;;;;;;;;;12672102;23;20024;-77
2023/11/05 20:08:44;;;;;;;9.25;8.43;;;;;;;;;;12674743;23;20458;-77
2023/11/05 20:13:42;;;;;;;8.70;7.90;;;;;;;;;;12658374;23;20604;-78
2023/11/05 20:18:40;;;;;;;7.82;7.20;;;;;;;;;;12674747;23;20102;-77
2023/11/05 20:23:37;;;;;;;9.43;8.43;;;;;;;;;;12658710;23;20725;-77
2023/11/05 20:28:35;;;;;;;10.00;9.00;;;;;;;;;;12675146;23;20024;-78
2023/11/05 20:33:38;;;;;;;10.60;9.60;;;;;;;;;;12687234;22;20031;-78
2023/11/05 20:38:35;;;;;;;11.20;8.98;;;;;;;;;;12674731;23;20049;-78
2023/11/05 20:43:32;;;;;;;10.52;9.52;;;;;;;;;;12671899;22;20389;-78
2023/11/05 20:48:28;;;;;;;10.75;9.65;;;;;;;;;;12673448;23;20082;-78
2023/11/05 20:53:29;;;;;;;13.40;10.38;;;;;;;;;;12673658;22;20190;-78
2023/11/05 20:58:28;;;;;;;13.23;9.10;;;;;;;;;;12666864;22;20714;-73
2023/11/05 21:03:25;;;;;;;10.30;8.30;;;;;;;;;;12683368;22;20027;-71
2023/11/05 21:08:22;;;;;;;8.93;8.10;;;;;;;;;;12695690;23;20035;-70
2023/11/05 21:13:19;;;;;;;10.75;8.40;;;;;;;;;;12691498;22;20027;-70
2023/11/05 21:18:15;;;;;;;8.80;7.90;;;;;;;;;;12687931;23;20020;-70
2023/11/05 21:23:12;;;;;;;14.93;7.93;;;;;;;;;;12692712;22;20027;-69
2023/11/05 21:28:08;;;;;;;11.10;6.88;;;;;;;;;;12694600;23;20675;-69
2023/11/05 21:33:05;;;;;;;12.15;7.10;;;;;;;;;;12694479;22;20818;-68
2023/11/05 21:38:01;;;;;;;8.95;7.38;;;;;;;;;;12693035;23;20032;-69
2023/11/05 21:42:58;;;;;;;9.48;6.97;;;;;;;;;;12694306;23;20028;-69
2023/11/05 21:47:54;;;;;;;7.53;6.53;;;;;;;;;;12683888;22;20031;-68
2023/11/05 21:52:51;;;;;;;8.60;6.85;;;;;;;;;;12692062;23;20032;-69
2023/11/05 21:57:48;;;;;;;6.32;5.72;;;;;;;;;;12693974;22;20485;-68
2023/11/05 22:02:44;;;;;;;9.07;5.47;;;;;;;;;;12695334;23;20024;-69
2023/11/05 22:07:40;;;;;;;7.03;5.50;;;;;;;;;;12694831;22;20031;-69
2023/11/05 22:12:36;;;;;;;6.53;4.72;;;;;;;;;;12695287;23;20369;-72
2023/11/05 22:17:33;;;;;;;7.72;4.65;;;;;;;;;;12695288;22;20469;-69
2023/11/05 22:22:29;;;;;;;8.60;4.60;;;;;;;;;;12695970;23;20362;-70
2023/11/05 22:27:26;;;;;;;6.80;4.60;;;;;;;;;;12695172;22;20039;-70
2023/11/05 22:32:22;;;;;;;6.30;4.20;;;;;;;;;;12694983;23;20036;-70
2023/11/05 22:37:19;;;;;;;9.15;4.35;;;;;;;;;;12672777;23;20107;-71
2023/11/05 22:42:15;;;;;;;12.27;4.35;;;;;;;;;;12699079;23;20024;-72
2023/11/05 22:47:11;;;;;;;7.65;4.80;;;;;;;;;;12673444;23;20442;-69
2023/11/05 22:52:08;;;;;;;5.00;3.75;;;;;;;;;;12698877;23;20395;-69
2023/11/05 22:57:04;;;;;;;7.72;3.80;;;;;;;;;;12699012;22;20102;-70
2023/11/05 23:02:00;;;;;;;7.63;3.90;;;;;;;;;;12671444;23;20024;-70
2023/11/05 23:06:57;;;;;;;5.00;4.00;;;;;;;;;;12699305;22;20031;-70
2023/11/05 23:11:53;;;;;;;9.50;3.75;;;;;;;;;;12698771;23;20724;-71
2023/11/05 23:16:49;;;;;;;4.20;3.67;;;;;;;;;;12698735;22;20032;-71
2023/11/05 23:21:46;;;;;;;6.22;3.70;;;;;;;;;;12699023;23;20048;-70
2023/11/05 23:26:42;;;;;;;7.93;4.22;;;;;;;;;;12698675;22;20035;-69
2023/11/05 23:31:41;;;;;;;4.65;3.70;;;;;;;;;;12698990;23;20094;-68
2023/11/05 23:36:38;;;;;;;10.20;3.78;;;;;;;;;;12698433;22;20032;-69
2023/11/05 23:41:34;;;;;;;5.18;3.50;;;;;;;;;;12698575;23;20040;-69
2023/11/05 23:46:31;;;;;;;6.18;3.53;;;;;;;;;;12697931;22;20032;-69
2023/11/05 23:51:27;;;;;;;6.05;3.72;;;;;;;;;;12693533;23;20036;-69
2023/11/05 23:56:23;;;;;;;5.15;4.18;;;;;;;;;;12699232;22;20071;-68
